Main page
METAR-TAF:

METAR-TAF

Airports :

El Tor Airport

El-Tor, Egypt

latitude: 28-14N, longitude: 032-37E, elevation: 21 m

Current weather observation

The report was made 1 hour and 15 minutes ago, at 06:00 UTC
Wind 6 kt from the North/Northwest
Temperature 28°C
Humidity 51%
Pressure 1012 hPa
Visibility 10 km or more
no clouds below 1500 m and no cumulonimbus

METAR: HETR 260600Z 33006KT CAVOK 28/17 Q1012

Time: 09:15 (07:15 UTC)

Forecast

The report was made 2 hours and 15 minutes ago, at 05:00 UTC
Forecast valid from 26 at 06 UTC to 27 at 12 UTC
Wind 10 kt from the Northwest with gusts up to 22 kt
Visibility 10 km or more
no clouds below 1500 m and no cumulonimbus

TAF: HETR 260500Z 2606/2712 31010G22KT CAVOK

Weather observations and forecasts of more than 4000 airports (METAR and TAF reports).

The available stations are represented by yellow and red dots on the map.

Hover mouse over dot to see the name of the station.

Then click to see weather observations and forecasts.

To change the map : click on the green buttons with a black cross to zoom in, on the green button with a dash to zoom out, or on the green arrows for adjacent maps.


METAR-TAF: